Terminal Aerodrome Forecast
Issued by NWS

Home | Current Version | Previous Version | Text Only | Print | Product List | Glossary On
Versions: 1 2 3 4 5 6 7 8 9 10 11 12
000
FTUS46 KPDT 041726
TAFPSC
TAF
KPSC 041726Z 0418/0518 27004KT P6SM SKC
     FM042200 24012G20KT P6SM SCT200
     FM050200 27008KT P6SM FEW150 SCT250=

USA.gov is the U.S. government's official web portal to all federal, state and local government web resources and services.